createdAt,value
2023-03-05T00:01:27.455Z,24.57
2023-03-05T00:03:57.383Z,24.93
2023-03-05T00:06:26.696Z,24.43
2023-03-05T00:08:58.296Z,24.37
2023-03-05T00:11:29.752Z,22.87
2023-03-05T00:13:58.609Z,24.33
2023-03-05T00:16:27.359Z,26.03
2023-03-05T00:18:56.533Z,21.97
2023-03-05T00:21:27.139Z,24.50
2023-03-05T00:23:57.249Z,21.33
2023-03-05T00:26:27.033Z,25.43
2023-03-05T00:28:57.842Z,24.60
2023-03-05T00:31:30.350Z,27.53
2023-03-05T00:34:00.400Z,22.77
2023-03-05T00:36:28.920Z,24.73
2023-03-05T00:38:58.457Z,22.57
2023-03-05T00:41:26.771Z,25.53
2023-03-05T00:43:54.706Z,22.47
2023-03-05T00:46:23.225Z,26.67
2023-03-05T00:48:51.146Z,24.20
2023-03-05T00:51:19.038Z,24.70
2023-03-05T00:53:46.982Z,25.47
2023-03-05T00:56:16.246Z,26.20
2023-03-05T00:58:44.239Z,22.90
2023-03-05T01:01:12.170Z,24.47
2023-03-05T01:03:40.091Z,23.03
2023-03-05T01:06:10.665Z,23.27
2023-03-05T01:08:39.106Z,25.70
2023-03-05T01:11:08.119Z,25.77
2023-03-05T01:13:37.578Z,26.53
2023-03-05T01:16:06.725Z,24.73
2023-03-05T01:18:35.172Z,25.23
2023-03-05T01:21:03.165Z,27.60
2023-03-05T01:23:31.060Z,26.03
2023-03-05T01:26:00.493Z,22.90
2023-03-05T01:28:28.906Z,23.80
2023-03-05T01:30:58.128Z,26.07
2023-03-05T01:33:26.036Z,25.30
2023-03-05T01:35:54.000Z,24.40
2023-03-05T01:38:21.919Z,28.30
2023-03-05T01:40:49.818Z,24.93
2023-03-05T01:43:27.544Z,26.03
2023-03-05T01:46:32.302Z,27.53
2023-03-05T01:49:14.931Z,26.40
2023-03-05T01:51:47.170Z,25.07
2023-03-05T01:54:18.485Z,28.83
2023-03-05T01:56:49.539Z,29.07
2023-03-05T01:59:18.741Z,24.90
2023-03-05T02:01:51.860Z,25.80
2023-03-05T02:04:22.694Z,24.77
2023-03-05T02:06:50.732Z,27.40
2023-03-05T02:09:23.370Z,26.07
2023-03-05T02:11:51.462Z,25.40
2023-03-05T02:14:20.611Z,28.47
2023-03-05T02:16:49.939Z,25.40
2023-03-05T02:19:17.817Z,27.30
2023-03-05T02:21:48.709Z,28.23
2023-03-05T02:24:19.860Z,27.37
2023-03-05T02:26:48.766Z,26.07
2023-03-05T02:29:20.933Z,26.37
2023-03-05T02:31:48.837Z,27.83
2023-03-05T02:34:16.892Z,26.83
2023-03-05T02:36:46.775Z,25.00
2023-03-05T02:39:14.625Z,25.40
2023-03-05T02:41:42.468Z,25.63
2023-03-05T02:44:10.584Z,24.33
2023-03-05T02:46:38.508Z,28.03
2023-03-05T02:49:06.412Z,24.70
2023-03-05T02:51:34.326Z,28.30
2023-03-05T02:54:03.649Z,28.00
2023-03-05T02:56:31.788Z,28.87
2023-03-05T02:58:59.769Z,27.47
2023-03-05T03:01:29.851Z,28.10
2023-03-05T03:03:57.778Z,29.83
2023-03-05T03:06:25.717Z,27.20
2023-03-05T03:08:53.574Z,27.40
2023-03-05T03:11:22.844Z,30.27
2023-03-05T03:13:50.856Z,28.57
2023-03-05T03:16:19.641Z,31.97
2023-03-05T03:18:48.940Z,30.03
2023-03-05T03:21:21.786Z,33.13
2023-03-05T03:23:49.738Z,28.33
2023-03-05T03:26:17.951Z,28.17
2023-03-05T03:28:47.220Z,28.57
2023-03-05T03:31:15.131Z,30.23
2023-03-05T03:33:43.084Z,29.17
2023-03-05T03:36:11.627Z,29.33
2023-03-05T03:38:39.625Z,25.60
2023-03-05T03:41:08.631Z,28.17
2023-03-05T03:43:36.598Z,30.00
2023-03-05T03:46:07.599Z,28.63
2023-03-05T03:48:36.009Z,26.57
2023-03-05T03:51:06.926Z,30.20
2023-03-05T03:53:35.165Z,26.77
2023-03-05T03:56:03.272Z,27.60
2023-03-05T03:58:31.149Z,24.90
2023-03-05T04:00:59.006Z,28.47
2023-03-05T04:03:28.391Z,27.33
2023-03-05T04:05:56.262Z,28.83
2023-03-05T04:08:24.159Z,27.47
2023-03-05T04:10:52.002Z,24.60
2023-03-05T04:13:19.893Z,26.97
2023-03-05T04:15:47.763Z,29.60
2023-03-05T04:18:15.733Z,29.77
2023-03-05T04:20:44.959Z,31.17
2023-03-05T04:23:12.812Z,27.20
2023-03-05T04:25:40.670Z,30.10
2023-03-05T04:28:08.545Z,32.47
2023-03-05T04:30:36.460Z,29.73
2023-03-05T04:33:04.549Z,29.23
2023-03-05T04:35:32.889Z,29.03
2023-03-05T04:38:02.284Z,25.67
2023-03-05T04:40:30.236Z,24.90
2023-03-05T04:42:58.118Z,27.47
2023-03-05T04:45:26.121Z,23.63
2023-03-05T04:47:54.146Z,28.60
2023-03-05T04:50:22.197Z,25.23
2023-03-05T04:52:50.129Z,22.17
2023-03-05T04:55:19.812Z,24.60
2023-03-05T04:57:47.657Z,23.10
2023-03-05T05:00:17.988Z,25.23
2023-03-05T05:02:47.234Z,23.63
2023-03-05T05:05:17.417Z,27.70
2023-03-05T05:07:45.903Z,23.83
2023-03-05T05:10:15.022Z,23.77
2023-03-05T05:12:44.632Z,24.63
2023-03-05T05:15:13.436Z,26.60
2023-03-05T05:17:41.580Z,23.30
2023-03-05T05:20:12.018Z,26.83
2023-03-05T05:22:40.069Z,22.07
2023-03-05T05:25:08.314Z,23.60
2023-03-05T05:27:36.202Z,24.03
2023-03-05T05:30:11.854Z,23.27
2023-03-05T05:32:39.750Z,23.73
2023-03-05T05:35:08.657Z,30.20
2023-03-05T05:37:36.511Z,27.13
2023-03-05T05:40:06.634Z,26.97
2023-03-05T05:42:34.591Z,27.93
2023-03-05T05:45:06.050Z,23.77
2023-03-05T05:47:35.398Z,23.77
2023-03-05T05:50:03.294Z,27.73
2023-03-05T05:52:31.225Z,25.43
2023-03-05T05:55:02.690Z,22.40
2023-03-05T05:57:30.572Z,26.83
2023-03-05T06:00:01.514Z,22.30
2023-03-05T06:02:29.384Z,24.10
2023-03-05T06:04:59.368Z,26.33
2023-03-05T06:07:27.282Z,25.83
2023-03-05T06:09:55.142Z,24.33
2023-03-05T06:12:22.978Z,25.80
2023-03-05T06:14:50.824Z,29.40
2023-03-05T06:17:28.658Z,24.83
2023-03-05T06:19:59.623Z,31.07
2023-03-05T06:22:27.906Z,26.43
2023-03-05T06:24:55.749Z,25.13
2023-03-05T06:27:23.683Z,28.77
2023-03-05T06:29:54.388Z,26.60
2023-03-05T06:32:22.358Z,26.53
2023-03-05T06:34:50.460Z,26.60
2023-03-05T06:37:19.828Z,26.13
2023-03-05T06:39:47.712Z,23.40
2023-03-05T06:42:17.725Z,24.17
2023-03-05T06:44:47.198Z,26.70
2023-03-05T06:47:16.103Z,24.03
2023-03-05T06:49:43.962Z,27.50
2023-03-05T06:52:12.835Z,26.67
2023-03-05T06:54:42.185Z,27.27
2023-03-05T06:57:11.620Z,25.37
2023-03-05T06:59:39.535Z,23.87
2023-03-05T07:02:07.602Z,24.53
2023-03-05T07:04:35.469Z,22.50
2023-03-05T07:07:03.340Z,25.80
2023-03-05T07:09:31.780Z,25.43
2023-03-05T07:12:01.066Z,25.13
2023-03-05T07:14:28.966Z,23.60
2023-03-05T07:16:56.856Z,24.13
2023-03-05T07:19:24.965Z,22.63
2023-03-05T07:21:52.787Z,25.03
2023-03-05T07:24:20.985Z,25.53
2023-03-05T07:26:49.111Z,23.33
2023-03-05T07:29:18.409Z,24.60
2023-03-05T07:31:46.271Z,21.97
2023-03-05T07:34:14.181Z,26.13
2023-03-05T07:36:43.057Z,25.10
2023-03-05T07:39:11.618Z,24.13
2023-03-05T07:41:40.497Z,24.17
2023-03-05T07:44:08.396Z,26.23
2023-03-05T07:46:37.667Z,24.30
2023-03-05T07:49:05.691Z,22.77
2023-03-05T07:51:33.505Z,21.13
2023-03-05T07:54:01.817Z,21.30
2023-03-05T07:56:32.270Z,22.27
2023-03-05T07:59:00.594Z,25.67
2023-03-05T08:01:28.723Z,20.27
2023-03-05T08:03:58.399Z,20.77
2023-03-05T08:06:26.354Z,22.07
2023-03-05T08:08:54.293Z,19.57
2023-03-05T08:11:22.280Z,23.00
2023-03-05T08:13:50.594Z,22.30
2023-03-05T08:16:20.427Z,22.23
2023-03-05T08:18:48.742Z,22.70
2023-03-05T08:21:23.105Z,21.40
2023-03-05T08:23:50.982Z,20.93
2023-03-05T08:26:22.359Z,20.50
2023-03-05T08:28:50.819Z,18.37
2023-03-05T08:31:21.343Z,18.07
2023-03-05T08:33:49.401Z,22.30
2023-03-05T08:36:17.251Z,18.87
2023-03-05T08:38:46.869Z,19.87
2023-03-05T08:41:14.772Z,18.43
2023-03-05T08:43:43.264Z,16.93
2023-03-05T08:46:11.776Z,15.57
2023-03-05T08:48:39.684Z,20.10
2023-03-05T08:51:08.754Z,19.40
2023-03-05T08:53:36.715Z,19.87
2023-03-05T08:56:06.528Z,16.53
2023-03-05T08:58:34.553Z,20.60
2023-03-05T09:01:02.478Z,23.23
2023-03-05T09:03:30.335Z,21.00
2023-03-05T09:06:01.412Z,21.63
2023-03-05T09:08:29.561Z,21.00
2023-03-05T09:10:57.475Z,23.27
2023-03-05T09:13:26.737Z,26.37
2023-03-05T09:15:58.184Z,23.47
2023-03-05T09:18:26.784Z,21.57
2023-03-05T09:20:55.233Z,22.37
2023-03-05T09:23:23.615Z,20.60
2023-03-05T09:25:51.519Z,20.10
2023-03-05T09:28:19.607Z,20.53
2023-03-05T09:30:48.867Z,19.33
2023-03-05T09:33:16.721Z,20.30
2023-03-05T09:35:44.836Z,16.53
2023-03-05T09:38:12.812Z,18.43
2023-03-05T09:40:47.726Z,17.93
2023-03-05T09:43:27.109Z,16.47
2023-03-05T09:46:11.484Z,20.10
2023-03-05T09:48:51.791Z,17.73
2023-03-05T09:51:25.697Z,17.50
2023-03-05T09:54:03.132Z,16.40
2023-03-05T09:56:34.406Z,18.07
2023-03-05T09:59:07.442Z,19.43
2023-03-05T10:01:39.988Z,18.07
2023-03-05T10:04:12.896Z,15.20
2023-03-05T10:06:48.740Z,18.73
2023-03-05T10:09:29.229Z,17.13
2023-03-05T10:12:00.287Z,16.53
2023-03-05T10:14:31.833Z,17.10
2023-03-05T10:17:23.220Z,14.80
2023-03-05T10:20:37.501Z,11.73
2023-03-05T10:23:24.812Z,11.87
2023-03-05T10:26:03.185Z,11.90
2023-03-05T10:28:39.791Z,14.30
2023-03-05T10:31:24.844Z,11.67
2023-03-05T10:34:07.200Z,11.83
2023-03-05T10:36:58.248Z,11.60
2023-03-05T10:39:41.838Z,11.43
2023-03-05T10:42:21.321Z,13.00
2023-03-05T10:44:53.660Z,12.37
2023-03-05T10:47:26.459Z,12.07
2023-03-05T10:49:57.634Z,13.33
2023-03-05T10:52:32.304Z,11.37
2023-03-05T10:55:00.200Z,13.33
2023-03-05T10:57:29.727Z,12.53
2023-03-05T11:00:02.813Z,11.77
2023-03-05T11:02:30.704Z,15.27
2023-03-05T11:05:00.151Z,12.10
2023-03-05T11:07:37.410Z,12.00
2023-03-05T11:10:23.348Z,13.03
2023-03-05T11:12:51.286Z,10.73
2023-03-05T11:15:31.719Z,10.73
2023-03-05T11:18:24.131Z,12.20
2023-03-05T11:20:54.062Z,13.33
2023-03-05T11:23:24.633Z,12.13
2023-03-05T11:25:56.958Z,10.63
2023-03-05T11:28:33.231Z,11.50
2023-03-05T11:31:04.627Z,9.73
2023-03-05T11:33:32.606Z,10.30
2023-03-05T11:36:26.605Z,13.23
2023-03-05T11:38:57.681Z,8.43
2023-03-05T11:41:33.409Z,11.47
2023-03-05T11:44:05.772Z,9.77
2023-03-05T11:46:42.111Z,11.30
2023-03-05T11:49:14.508Z,10.60
2023-03-05T11:51:49.917Z,12.80
2023-03-05T11:54:24.006Z,9.30
2023-03-05T11:56:52.940Z,11.40
2023-03-05T11:59:25.204Z,11.43
2023-03-05T12:01:56.404Z,12.73
2023-03-05T12:04:25.427Z,13.30
2023-03-05T12:06:57.345Z,25.53
2023-03-05T12:09:33.883Z,11.47
2023-03-05T12:12:10.875Z,11.50
2023-03-05T12:14:46.450Z,12.07
2023-03-05T12:17:20.104Z,12.07
2023-03-05T12:19:54.472Z,9.63
2023-03-05T12:22:26.157Z,11.97
2023-03-05T12:24:54.234Z,8.93
2023-03-05T12:27:36.892Z,12.03
2023-03-05T12:30:06.477Z,10.33
2023-03-05T12:33:02.246Z,9.83
2023-03-05T12:35:39.639Z,7.60
2023-03-05T12:38:34.492Z,10.13
2023-03-05T12:41:35.705Z,8.03
2023-03-05T12:44:23.763Z,9.70
2023-03-05T12:47:18.526Z,9.07
2023-03-05T12:49:48.947Z,7.70
2023-03-05T12:52:30.896Z,9.00
2023-03-05T12:55:08.654Z,7.97
2023-03-05T12:57:38.340Z,8.53
2023-03-05T13:00:12.407Z,8.63
2023-03-05T13:02:42.332Z,7.23
2023-03-05T13:05:20.702Z,7.30
2023-03-05T13:07:48.688Z,7.83
2023-03-05T13:10:26.318Z,9.07
2023-03-05T13:12:56.574Z,6.97
2023-03-05T13:15:26.741Z,5.97
2023-03-05T13:17:57.802Z,5.83
2023-03-05T13:20:34.729Z,6.10
2023-03-05T13:23:20.636Z,6.47
2023-03-05T13:26:01.949Z,6.00
2023-03-05T13:28:31.212Z,5.23
2023-03-05T13:31:00.948Z,4.93
2023-03-05T13:33:32.482Z,5.40
2023-03-05T13:36:01.024Z,6.50
2023-03-05T13:38:34.958Z,11.40
2023-03-05T13:41:19.536Z,5.33
2023-03-05T13:43:49.481Z,6.37
2023-03-05T13:46:28.855Z,4.60
2023-03-05T13:48:57.568Z,5.17
2023-03-05T13:51:25.796Z,4.93
2023-03-05T13:53:54.422Z,4.07
2023-03-05T13:56:23.731Z,5.83
2023-03-05T13:58:53.826Z,5.63
2023-03-05T14:01:29.788Z,5.80
2023-03-05T14:04:00.792Z,5.13
2023-03-05T14:06:30.976Z,5.83
2023-03-05T14:09:06.964Z,4.93
2023-03-05T14:11:36.958Z,3.87
2023-03-05T14:14:15.453Z,5.67
2023-03-05T14:16:43.474Z,3.90
2023-03-05T14:19:34.733Z,3.40
2023-03-05T14:22:03.194Z,5.63
2023-03-05T14:24:31.478Z,3.00
2023-03-05T14:27:05.684Z,4.43
2023-03-05T14:29:34.769Z,3.70
2023-03-05T14:32:06.287Z,3.07
2023-03-05T14:34:37.963Z,3.67
2023-03-05T14:37:08.704Z,3.33
2023-03-05T14:39:46.542Z,3.27
2023-03-05T14:42:38.366Z,3.00
2023-03-05T14:45:14.366Z,3.00
2023-03-05T14:47:42.668Z,2.40
2023-03-05T14:50:15.988Z,4.27
2023-03-05T14:52:44.498Z,2.60
2023-03-05T14:55:16.354Z,2.63
2023-03-05T14:57:46.203Z,2.37
2023-03-05T15:00:18.205Z,2.00
2023-03-05T15:02:46.135Z,1.93
2023-03-05T15:05:14.029Z,2.37
2023-03-05T15:07:42.105Z,1.97
2023-03-05T15:10:11.274Z,2.00
2023-03-05T15:12:39.089Z,1.83
2023-03-05T15:15:10.237Z,2.03
2023-03-05T15:17:42.584Z,2.30
2023-03-05T15:20:15.095Z,2.37
2023-03-05T15:22:42.976Z,3.53
2023-03-05T15:25:11.507Z,2.03
2023-03-05T15:27:39.454Z,3.40
2023-03-05T15:30:15.621Z,2.60
2023-03-05T15:32:43.479Z,3.37
2023-03-05T15:35:11.298Z,2.17
2023-03-05T15:37:39.755Z,3.07
2023-03-05T15:40:08.797Z,2.30
2023-03-05T15:42:36.737Z,2.27
2023-03-05T15:45:05.132Z,3.00
2023-03-05T15:47:34.310Z,2.10
2023-03-05T15:50:02.336Z,2.13
2023-03-05T15:52:30.172Z,2.60
2023-03-05T15:54:58.026Z,3.60
2023-03-05T15:57:26.502Z,2.73
2023-03-05T15:59:55.632Z,4.03
2023-03-05T16:02:24.758Z,2.73
2023-03-05T16:04:53.957Z,3.07
2023-03-05T16:07:23.690Z,2.63
2023-03-05T16:09:52.914Z,3.00
2023-03-05T16:12:25.055Z,4.20
2023-03-05T16:14:53.379Z,3.40
2023-03-05T16:17:23.476Z,4.00
2023-03-05T16:19:55.736Z,3.40
2023-03-05T16:22:23.866Z,2.93
2023-03-05T16:24:51.727Z,2.63
2023-03-05T16:27:19.726Z,3.30
2023-03-05T16:29:47.563Z,3.57
2023-03-05T16:32:17.354Z,3.40
2023-03-05T16:34:45.227Z,3.73
2023-03-05T16:37:19.884Z,3.10
2023-03-05T16:39:47.965Z,3.60
2023-03-05T16:42:15.844Z,2.97
2023-03-05T16:44:45.196Z,4.13
2023-03-05T16:47:13.672Z,3.67
2023-03-05T16:49:41.597Z,3.90
2023-03-05T16:52:18.785Z,4.00
2023-03-05T16:54:49.067Z,5.23
2023-03-05T16:57:17.548Z,4.27
2023-03-05T16:59:45.596Z,5.00
2023-03-05T17:02:15.362Z,3.97
2023-03-05T17:04:43.517Z,6.47
2023-03-05T17:07:12.038Z,5.47
2023-03-05T17:09:39.934Z,4.97
2023-03-05T17:12:09.504Z,5.80
2023-03-05T17:14:37.364Z,5.83
2023-03-05T17:17:05.339Z,5.53
2023-03-05T17:19:33.208Z,6.17
2023-03-05T17:22:01.126Z,5.57
2023-03-05T17:24:30.117Z,5.30
2023-03-05T17:26:57.989Z,6.43
2023-03-05T17:29:27.331Z,6.73
2023-03-05T17:31:55.218Z,8.50
2023-03-05T17:34:35.735Z,7.27
2023-03-05T17:37:05.619Z,8.47
2023-03-05T17:39:33.822Z,8.73
2023-03-05T17:42:01.843Z,7.03
2023-03-05T17:44:31.299Z,6.63
2023-03-05T17:46:59.222Z,5.47
2023-03-05T17:49:27.161Z,5.73
2023-03-05T17:51:55.124Z,6.00
2023-03-05T17:54:23.537Z,6.27
2023-03-05T17:56:55.742Z,6.47
2023-03-05T17:59:24.150Z,6.53
2023-03-05T18:01:53.904Z,7.93
2023-03-05T18:04:21.814Z,6.43
2023-03-05T18:06:49.694Z,5.63
2023-03-05T18:09:17.834Z,7.37
2023-03-05T18:11:45.765Z,7.30
2023-03-05T18:14:15.833Z,5.73
2023-03-05T18:16:44.770Z,4.60
2023-03-05T18:19:14.066Z,5.77
2023-03-05T18:21:42.500Z,8.57
2023-03-05T18:24:10.541Z,6.03
2023-03-05T18:26:38.386Z,5.67
2023-03-05T18:29:06.246Z,7.10
2023-03-05T18:31:34.103Z,6.57
2023-03-05T18:34:02.008Z,5.00
2023-03-05T18:36:31.351Z,5.83
2023-03-05T18:38:59.331Z,7.90
2023-03-05T18:41:28.275Z,8.07
2023-03-05T18:43:56.753Z,7.67
2023-03-05T18:46:25.252Z,8.10
2023-03-05T18:48:53.131Z,9.33
2023-03-05T18:51:22.699Z,7.87
2023-03-05T18:53:54.935Z,8.10
2023-03-05T18:56:23.234Z,6.60
2023-03-05T18:58:51.121Z,9.33
2023-03-05T19:01:19.971Z,9.67
2023-03-05T19:03:49.044Z,8.73
2023-03-05T19:06:17.763Z,8.70
2023-03-05T19:08:46.120Z,6.90
2023-03-05T19:11:20.054Z,7.47
2023-03-05T19:13:50.328Z,8.13
2023-03-05T19:16:20.944Z,8.17
2023-03-05T19:19:02.439Z,9.47
2023-03-05T19:21:30.462Z,8.90
2023-03-05T19:23:58.499Z,8.73
2023-03-05T19:26:27.827Z,6.73
2023-03-05T19:28:55.665Z,8.70
2023-03-05T19:31:24.226Z,9.73
2023-03-05T19:33:52.171Z,9.37
2023-03-05T19:36:19.999Z,9.53
2023-03-05T19:38:48.665Z,10.47
2023-03-05T19:41:19.446Z,10.33
2023-03-05T19:43:49.832Z,9.17
2023-03-05T19:46:18.495Z,8.37
2023-03-05T19:48:47.048Z,8.43
2023-03-05T19:51:16.899Z,10.83
2023-03-05T19:53:45.194Z,10.00
2023-03-05T19:56:15.630Z,7.80
2023-03-05T19:58:45.598Z,9.00
2023-03-05T20:01:16.535Z,9.27
2023-03-05T20:03:45.423Z,9.20
2023-03-05T20:06:13.760Z,9.77
2023-03-05T20:08:42.059Z,9.07
2023-03-05T20:11:11.539Z,11.03
2023-03-05T20:13:39.803Z,11.67
2023-03-05T20:16:15.759Z,10.27
2023-03-05T20:18:43.874Z,12.17
2023-03-05T20:21:12.112Z,9.77
2023-03-05T20:23:40.142Z,10.80
2023-03-05T20:26:08.104Z,11.27
2023-03-05T20:28:36.125Z,11.60
2023-03-05T20:31:04.109Z,11.70
2023-03-05T20:33:33.569Z,11.43
2023-03-05T20:36:01.439Z,9.17
2023-03-05T20:38:30.645Z,8.77
2023-03-05T20:41:00.636Z,9.90
2023-03-05T20:43:30.037Z,7.47
2023-03-05T20:45:58.642Z,9.13
2023-03-05T20:48:28.365Z,11.20
2023-03-05T20:51:01.348Z,9.43
2023-03-05T20:53:29.351Z,10.07
2023-03-05T20:55:57.210Z,8.30
2023-03-05T20:58:25.052Z,11.70
2023-03-05T21:00:53.437Z,9.37
2023-03-05T21:03:21.309Z,9.77
2023-03-05T21:05:49.238Z,9.90
2023-03-05T21:08:18.538Z,9.27
2023-03-05T21:10:46.453Z,9.80
2023-03-05T21:13:14.454Z,8.97
2023-03-05T21:15:42.496Z,9.93
2023-03-05T21:18:10.436Z,9.10
2023-03-05T21:20:38.390Z,8.97
2023-03-05T21:23:06.242Z,10.00
2023-03-05T21:25:36.098Z,11.00
2023-03-05T21:28:05.598Z,10.07
2023-03-05T21:30:35.685Z,11.03
2023-03-05T21:33:05.344Z,10.03
2023-03-05T21:35:33.843Z,8.97
2023-03-05T21:38:01.808Z,9.03
2023-03-05T21:40:30.215Z,11.47
2023-03-05T21:42:59.710Z,10.63
2023-03-05T21:45:30.339Z,11.60
2023-03-05T21:47:59.816Z,10.40
2023-03-05T21:50:27.961Z,9.67
2023-03-05T21:52:56.178Z,12.17
2023-03-05T21:55:32.316Z,11.53
2023-03-05T21:58:01.854Z,11.07
2023-03-05T22:00:29.896Z,8.70
2023-03-05T22:02:57.773Z,10.10
2023-03-05T22:05:25.621Z,8.43
2023-03-05T22:07:53.498Z,10.73
2023-03-05T22:10:22.002Z,8.93
2023-03-05T22:12:57.201Z,11.50
2023-03-05T22:15:26.672Z,10.47
2023-03-05T22:17:54.576Z,10.37
2023-03-05T22:20:22.618Z,10.17
2023-03-05T22:22:50.593Z,11.33
2023-03-05T22:25:19.482Z,9.90
2023-03-05T22:27:47.405Z,9.20
2023-03-05T22:30:15.559Z,9.37
2023-03-05T22:32:44.882Z,9.97
2023-03-05T22:35:15.625Z,9.97
2023-03-05T22:37:44.039Z,10.87
2023-03-05T22:40:16.593Z,9.70
2023-03-05T22:42:45.382Z,9.63
2023-03-05T22:45:14.238Z,9.83
2023-03-05T22:47:42.450Z,10.97
2023-03-05T22:50:13.350Z,12.83
2023-03-05T22:52:41.261Z,10.63
2023-03-05T22:55:11.855Z,10.83
2023-03-05T22:57:39.759Z,8.43
2023-03-05T23:00:13.493Z,12.10
2023-03-05T23:02:42.301Z,9.83
2023-03-05T23:05:12.972Z,11.30
2023-03-05T23:07:42.637Z,9.63
2023-03-05T23:10:13.584Z,10.23
2023-03-05T23:12:44.085Z,10.80
2023-03-05T23:15:15.223Z,11.97
2023-03-05T23:17:43.166Z,10.17
2023-03-05T23:20:16.907Z,9.77
2023-03-05T23:22:46.158Z,11.23
2023-03-05T23:25:15.732Z,10.43
2023-03-05T23:27:44.102Z,8.53
2023-03-05T23:30:20.754Z,8.90
2023-03-05T23:32:51.251Z,11.63
2023-03-05T23:35:22.669Z,10.13
2023-03-05T23:37:50.618Z,12.27
2023-03-05T23:40:21.583Z,11.83
2023-03-05T23:42:49.971Z,11.70
2023-03-05T23:45:18.951Z,12.90
2023-03-05T23:47:48.340Z,10.80
2023-03-05T23:50:18.676Z,11.37
2023-03-05T23:52:48.642Z,11.67
2023-03-05T23:55:18.913Z,10.47
2023-03-05T23:57:47.850Z,10.83
